createdAt,value
2023-04-04T00:00:34.808Z,1.63
2023-04-04T00:03:02.081Z,1.75
2023-04-04T00:05:29.401Z,1.48
2023-04-04T00:07:57.892Z,1.63
2023-04-04T00:10:25.073Z,1.70
2023-04-04T00:12:52.777Z,1.65
2023-04-04T00:15:20.120Z,1.45
2023-04-04T00:17:47.301Z,3.13
2023-04-04T00:20:14.560Z,3.10
2023-04-04T00:22:42.232Z,2.05
2023-04-04T00:25:10.870Z,2.13
2023-04-04T00:27:38.061Z,2.97
2023-04-04T00:30:05.750Z,3.58
2023-04-04T00:32:32.975Z,4.13
2023-04-04T00:35:00.414Z,2.28
2023-04-04T00:37:28.128Z,1.60
2023-04-04T00:39:55.630Z,1.52
2023-04-04T00:42:24.148Z,2.00
2023-04-04T00:44:52.267Z,1.23
2023-04-04T00:47:19.922Z,2.83
2023-04-04T00:49:47.262Z,1.55
2023-04-04T00:52:14.623Z,1.85
2023-04-04T00:54:41.838Z,2.35
2023-04-04T00:57:09.039Z,2.70
2023-04-04T00:59:37.532Z,2.28
2023-04-04T01:02:04.776Z,2.55
2023-04-04T01:04:32.580Z,1.58
2023-04-04T01:07:00.362Z,1.90
2023-04-04T01:09:27.607Z,1.30
2023-04-04T01:11:54.805Z,1.73
2023-04-04T01:14:22.024Z,1.40
2023-04-04T01:16:50.694Z,1.40
2023-04-04T01:19:18.440Z,2.05
2023-04-04T01:21:45.644Z,2.25
2023-04-04T01:24:13.244Z,1.63
2023-04-04T01:26:41.826Z,1.30
2023-04-04T01:29:09.046Z,2.53
2023-04-04T01:31:37.117Z,1.45
2023-04-04T01:34:05.743Z,1.90
2023-04-04T01:36:33.214Z,3.08
2023-04-04T01:39:01.741Z,1.42
2023-04-04T01:41:28.922Z,1.75
2023-04-04T01:43:57.838Z,1.58
2023-04-04T01:46:25.084Z,2.60
2023-04-04T01:48:52.533Z,2.03
2023-04-04T01:51:19.732Z,1.55
2023-04-04T01:53:46.941Z,1.70
2023-04-04T01:56:14.441Z,1.70
2023-04-04T01:58:41.654Z,1.75
2023-04-04T02:01:10.494Z,2.67
2023-04-04T02:03:37.866Z,2.58
2023-04-04T02:06:05.473Z,2.38
2023-04-04T02:08:32.684Z,3.10
2023-04-04T02:11:00.150Z,1.65
2023-04-04T02:13:27.345Z,1.52
2023-04-04T02:15:54.591Z,1.67
2023-04-04T02:18:23.129Z,2.22
2023-04-04T02:20:55.669Z,1.40
2023-04-04T02:23:22.868Z,1.92
2023-04-04T02:25:50.871Z,2.20
2023-04-04T02:28:18.076Z,1.30
2023-04-04T02:30:45.502Z,2.88
2023-04-04T02:33:12.951Z,1.60
2023-04-04T02:35:41.632Z,1.55
2023-04-04T02:38:08.867Z,1.52
2023-04-04T02:40:39.385Z,2.10
2023-04-04T02:43:06.837Z,1.70
2023-04-04T02:45:34.031Z,2.53
2023-04-04T02:48:02.008Z,2.58
2023-04-04T02:50:29.234Z,1.60
2023-04-04T02:53:02.044Z,2.00
2023-04-04T02:55:30.030Z,3.40
2023-04-04T02:57:58.051Z,1.75
2023-04-04T03:00:25.310Z,1.75
2023-04-04T03:02:55.924Z,1.92
2023-04-04T03:05:24.216Z,1.75
2023-04-04T03:07:53.822Z,1.50
2023-04-04T03:10:22.384Z,2.50
2023-04-04T03:12:49.604Z,1.85
2023-04-04T03:15:16.794Z,2.83
2023-04-04T03:17:44.706Z,2.45
2023-04-04T03:20:12.616Z,2.22
2023-04-04T03:22:39.839Z,1.73
2023-04-04T03:25:07.234Z,2.55
2023-04-04T03:27:35.769Z,2.35
2023-04-04T03:30:03.165Z,2.78
2023-04-04T03:32:30.408Z,2.47
2023-04-04T03:34:57.626Z,2.30
2023-04-04T03:37:24.842Z,1.65
2023-04-04T03:39:52.026Z,2.25
2023-04-04T03:42:19.234Z,2.13
2023-04-04T03:44:47.868Z,2.03
2023-04-04T03:47:15.338Z,1.80
2023-04-04T03:49:42.508Z,1.60
2023-04-04T03:52:09.703Z,1.63
2023-04-04T03:54:37.063Z,1.55
2023-04-04T03:57:04.602Z,2.47
2023-04-04T03:59:31.831Z,2.08
2023-04-04T04:02:00.401Z,1.83
2023-04-04T04:04:27.615Z,1.45
2023-04-04T04:06:54.859Z,2.60
2023-04-04T04:09:22.048Z,3.50
2023-04-04T04:11:49.256Z,1.70
2023-04-04T04:14:16.519Z,1.50
2023-04-04T04:16:43.745Z,3.63
2023-04-04T04:19:12.254Z,1.60
2023-04-04T04:21:39.464Z,2.05
2023-04-04T04:24:07.109Z,1.92
2023-04-04T04:26:34.335Z,2.42
2023-04-04T04:29:01.533Z,2.50
2023-04-04T04:31:28.803Z,3.13
2023-04-04T04:33:56.750Z,2.15
2023-04-04T04:36:25.380Z,2.50
2023-04-04T04:38:52.831Z,1.95
2023-04-04T04:41:20.094Z,1.83
2023-04-04T04:43:47.268Z,2.35
2023-04-04T04:46:14.824Z,1.90
2023-04-04T04:48:42.197Z,2.03
2023-04-04T04:51:09.408Z,2.08
2023-04-04T04:53:37.936Z,2.67
2023-04-04T04:56:05.374Z,2.13
2023-04-04T04:58:32.952Z,2.00
2023-04-04T05:01:00.244Z,2.15
2023-04-04T05:03:27.641Z,2.05
2023-04-04T05:05:54.902Z,2.22
2023-04-04T05:08:22.363Z,2.65
2023-04-04T05:10:52.679Z,3.83
2023-04-04T05:13:20.315Z,1.67
2023-04-04T05:15:47.575Z,3.80
2023-04-04T05:18:14.805Z,1.90
2023-04-04T05:20:42.216Z,3.35
2023-04-04T05:23:09.629Z,3.50
2023-04-04T05:25:36.823Z,2.92
2023-04-04T05:28:05.378Z,4.25
2023-04-04T05:30:32.862Z,11.50
2023-04-04T05:33:00.201Z,19.92
2023-04-04T05:35:27.518Z,17.77
2023-04-04T05:37:54.757Z,17.77
2023-04-04T05:40:22.315Z,22.90
2023-04-04T05:42:54.730Z,23.40
2023-04-04T05:45:23.255Z,25.05
2023-04-04T05:47:50.558Z,24.83
2023-04-04T05:50:17.757Z,21.58
2023-04-04T05:52:44.977Z,26.40
2023-04-04T05:55:12.172Z,26.50
2023-04-04T05:57:39.376Z,20.52
2023-04-04T06:00:09.507Z,18.52
2023-04-04T06:05:05.851Z,17.83
2023-04-04T06:07:33.106Z,16.23
2023-04-04T06:10:00.335Z,14.82
2023-04-04T06:12:27.544Z,14.00
2023-04-04T06:14:54.758Z,12.85
2023-04-04T06:17:21.957Z,11.82
2023-04-04T06:19:49.163Z,13.27
2023-04-04T06:22:17.854Z,11.77
2023-04-04T06:24:45.036Z,11.55
2023-04-04T06:27:12.521Z,10.32
2023-04-04T06:29:39.705Z,10.20
2023-04-04T06:32:06.935Z,10.68
2023-04-04T06:34:34.120Z,9.05
2023-04-04T06:37:01.344Z,8.07
2023-04-04T06:39:31.295Z,8.95
2023-04-04T06:41:58.496Z,7.40
2023-04-04T06:44:25.697Z,6.88
2023-04-04T06:46:52.988Z,10.30
2023-04-04T06:49:20.277Z,8.18
2023-04-04T06:51:50.536Z,6.90
2023-04-04T06:54:17.736Z,7.40
2023-04-04T06:56:46.387Z,7.88
2023-04-04T06:59:14.047Z,8.25
2023-04-04T07:01:41.352Z,6.97
2023-04-04T07:04:08.557Z,5.18
2023-04-04T07:06:35.835Z,6.15
2023-04-04T07:09:03.350Z,6.18
2023-04-04T07:11:30.731Z,6.78
2023-04-04T07:13:59.246Z,8.50
2023-04-04T07:16:26.662Z,5.43
2023-04-04T07:18:53.916Z,5.78
2023-04-04T07:21:21.214Z,6.80
2023-04-04T07:23:48.494Z,5.50
2023-04-04T07:26:15.709Z,5.25
2023-04-04T07:28:43.037Z,7.75
2023-04-04T07:31:11.900Z,5.82
2023-04-04T07:33:39.902Z,6.10
2023-04-04T07:36:07.123Z,7.68
2023-04-04T07:38:34.342Z,7.82
2023-04-04T07:41:03.656Z,4.57
2023-04-04T07:43:31.471Z,5.35
2023-04-04T07:45:58.679Z,6.38
2023-04-04T07:48:27.825Z,6.38
2023-04-04T07:50:55.036Z,5.22
2023-04-04T07:53:22.515Z,5.38
2023-04-04T07:55:49.780Z,4.80
2023-04-04T07:58:17.003Z,8.77
2023-04-04T08:00:44.177Z,6.65
2023-04-04T08:03:12.163Z,8.30
2023-04-04T08:05:40.953Z,6.28
2023-04-04T08:08:08.156Z,5.93
2023-04-04T08:10:35.338Z,9.90
2023-04-04T08:13:04.396Z,8.00
2023-04-04T08:15:31.956Z,11.52
2023-04-04T08:17:59.203Z,7.90
2023-04-04T08:20:27.036Z,74.10
2023-04-04T08:22:56.240Z,253.45
2023-04-04T08:25:23.919Z,214.87
2023-04-04T08:27:51.139Z,192.68
2023-04-04T08:30:18.685Z,185.02
2023-04-04T08:32:46.146Z,135.52
2023-04-04T08:35:13.453Z,135.07
2023-04-04T08:37:44.547Z,111.00
2023-04-04T08:40:13.229Z,115.97
2023-04-04T08:42:41.167Z,138.10
2023-04-04T08:45:09.834Z,132.30
2023-04-04T08:47:37.528Z,147.18
2023-04-04T08:50:05.331Z,156.05
2023-04-04T08:52:32.609Z,175.48
2023-04-04T08:54:59.799Z,158.63
2023-04-04T08:57:28.312Z,149.95
2023-04-04T08:59:55.727Z,154.82
2023-04-04T09:02:24.610Z,138.07
2023-04-04T09:05:05.503Z,117.55
2023-04-04T09:07:34.958Z,110.82
2023-04-04T09:10:03.945Z,111.87
2023-04-04T09:12:33.025Z,98.85
2023-04-04T09:15:00.326Z,97.72
2023-04-04T09:17:28.355Z,99.32
2023-04-04T09:19:55.618Z,82.07
2023-04-04T09:22:22.803Z,86.22
2023-04-04T09:24:51.658Z,76.55
2023-04-04T09:27:18.958Z,71.93
2023-04-04T09:29:47.563Z,60.88
2023-04-04T09:32:14.829Z,52.83
2023-04-04T09:34:42.074Z,54.22
2023-04-04T09:37:09.276Z,56.33
2023-04-04T09:39:38.030Z,41.20
2023-04-04T09:42:06.122Z,39.30
2023-04-04T09:44:34.076Z,45.78
2023-04-04T09:47:08.669Z,35.33
2023-04-04T09:49:36.570Z,36.58
2023-04-04T09:52:03.984Z,31.80
2023-04-04T09:54:31.567Z,32.70
2023-04-04T09:56:58.832Z,30.55
2023-04-04T09:59:26.115Z,27.15
2023-04-04T10:01:55.239Z,25.58
2023-04-04T10:04:26.914Z,23.73
2023-04-04T10:06:54.629Z,27.80
2023-04-04T10:09:21.831Z,20.38
2023-04-04T10:11:49.355Z,25.00
2023-04-04T10:14:16.585Z,23.45
2023-04-04T10:16:44.862Z,21.13
2023-04-04T10:19:12.413Z,22.30
2023-04-04T10:21:41.166Z,21.42
2023-04-04T10:24:09.924Z,15.60
2023-04-04T10:26:37.838Z,17.27
2023-04-04T10:29:06.171Z,17.83
2023-04-04T10:31:34.314Z,16.27
2023-04-04T10:34:04.962Z,15.18
2023-04-04T10:36:37.786Z,15.77
2023-04-04T10:39:09.151Z,17.10
2023-04-04T10:41:36.349Z,12.43
2023-04-04T10:44:07.488Z,13.95
2023-04-04T10:46:34.792Z,12.38
2023-04-04T10:49:02.099Z,10.77
2023-04-04T10:51:29.285Z,13.38
2023-04-04T10:53:56.610Z,8.90
2023-04-04T10:56:25.111Z,9.45
2023-04-04T10:58:52.341Z,11.50
2023-04-04T11:01:21.037Z,11.75
2023-04-04T11:04:08.195Z,7.65
2023-04-04T11:06:56.304Z,9.50
2023-04-04T11:09:38.433Z,9.45
2023-04-04T11:12:10.553Z,10.63
2023-04-04T11:14:37.747Z,8.07
2023-04-04T11:17:05.672Z,9.25
2023-04-04T11:19:33.212Z,7.68
2023-04-04T11:22:00.394Z,7.80
2023-04-04T11:24:28.072Z,7.13
2023-04-04T11:26:55.511Z,6.28
2023-04-04T11:29:44.653Z,6.60
2023-04-04T11:32:26.976Z,9.45
2023-04-04T11:34:55.653Z,11.43
2023-04-04T11:37:24.097Z,6.65
2023-04-04T11:39:56.633Z,8.85
2023-04-04T11:42:23.801Z,6.30
2023-04-04T11:45:02.786Z,9.15
2023-04-04T11:47:30.646Z,11.77
2023-04-04T11:50:00.441Z,8.93
2023-04-04T11:52:28.336Z,7.75
2023-04-04T11:54:55.536Z,8.93
2023-04-04T11:57:22.728Z,8.30
2023-04-04T11:59:50.723Z,6.75
2023-04-04T12:02:20.094Z,6.35
2023-04-04T12:04:47.696Z,8.03
2023-04-04T12:07:16.294Z,7.40
2023-04-04T12:09:43.507Z,10.43
2023-04-04T12:12:12.822Z,9.63
2023-04-04T12:14:40.042Z,8.00
2023-04-04T12:17:07.241Z,6.93
2023-04-04T12:19:36.997Z,5.60
2023-04-04T12:22:05.358Z,7.95
2023-04-04T12:24:33.987Z,6.90
2023-04-04T12:27:02.628Z,5.18
2023-04-04T12:29:35.901Z,6.43
2023-04-04T12:32:03.181Z,7.90
2023-04-04T12:37:03.611Z,5.18
2023-04-04T12:39:31.327Z,9.38
2023-04-04T12:42:01.152Z,8.32
2023-04-04T12:44:29.166Z,7.63
2023-04-04T12:46:57.568Z,6.25
2023-04-04T12:49:24.911Z,6.32
2023-04-04T12:51:53.829Z,6.25
2023-04-04T12:54:27.799Z,9.88
2023-04-04T12:56:55.709Z,6.60
2023-04-04T12:59:24.902Z,8.55
2023-04-04T13:01:52.212Z,6.00
2023-04-04T13:04:20.113Z,7.25
2023-04-04T13:06:48.826Z,7.53
2023-04-04T13:09:18.916Z,7.28
2023-04-04T13:12:01.700Z,6.22
2023-04-04T13:14:30.704Z,4.63
2023-04-04T13:17:05.778Z,8.52
2023-04-04T13:19:33.205Z,3.63
2023-04-04T13:22:02.648Z,5.18
2023-04-04T13:24:29.872Z,5.50
2023-04-04T13:26:57.804Z,4.78
2023-04-04T13:29:25.380Z,3.55
2023-04-04T13:34:14.498Z,5.72
2023-04-04T13:36:41.691Z,5.55
2023-04-04T13:39:08.919Z,4.22
2023-04-04T13:41:36.117Z,6.20
2023-04-04T13:44:03.311Z,3.75
2023-04-04T13:46:30.544Z,3.72
2023-04-04T13:48:57.739Z,4.70
2023-04-04T13:51:26.642Z,3.95
2023-04-04T13:53:53.817Z,2.92
2023-04-04T13:56:21.951Z,2.72
2023-04-04T13:58:50.798Z,3.85
2023-04-04T14:01:18.119Z,4.95
2023-04-04T14:03:45.391Z,4.35
2023-04-04T14:06:12.665Z,3.95
2023-04-04T14:08:41.442Z,2.55
2023-04-04T14:11:08.633Z,3.97
2023-04-04T14:13:36.142Z,4.00
2023-04-04T14:16:03.562Z,2.70
2023-04-04T14:18:31.013Z,3.45
2023-04-04T14:20:58.213Z,5.05
2023-04-04T14:23:25.708Z,3.72
2023-04-04T14:25:54.216Z,3.47
2023-04-04T14:28:21.406Z,2.70
2023-04-04T14:30:50.235Z,4.25
2023-04-04T14:33:17.431Z,5.53
2023-04-04T14:35:44.624Z,2.22
2023-04-04T14:38:11.810Z,2.55
2023-04-04T14:40:38.988Z,2.20
2023-04-04T14:43:07.560Z,3.28
2023-04-04T14:45:34.958Z,1.52
2023-04-04T14:48:02.259Z,2.92
2023-04-04T14:50:29.525Z,2.63
2023-04-04T14:52:56.890Z,3.05
2023-04-04T14:55:24.167Z,2.08
2023-04-04T14:58:01.960Z,3.88
2023-04-04T15:00:31.382Z,3.42
2023-04-04T15:02:58.646Z,2.53
2023-04-04T15:05:26.110Z,3.47
2023-04-04T15:07:53.345Z,3.30
2023-04-04T15:10:20.694Z,2.50
2023-04-04T15:12:47.919Z,3.63
2023-04-04T15:15:15.561Z,2.05
2023-04-04T15:17:44.123Z,2.40
2023-04-04T15:20:12.074Z,3.38
2023-04-04T15:22:41.229Z,3.15
2023-04-04T15:25:09.072Z,2.67
2023-04-04T15:27:36.321Z,3.20
2023-04-04T15:30:03.521Z,2.40
2023-04-04T15:32:31.146Z,2.25
2023-04-04T15:34:59.711Z,2.00
2023-04-04T15:37:26.971Z,3.28
2023-04-04T15:39:54.669Z,2.40
2023-04-04T15:42:21.997Z,1.73
2023-04-04T15:44:49.211Z,3.80
2023-04-04T15:47:16.675Z,1.88
2023-04-04T15:49:43.910Z,2.88
2023-04-04T15:52:12.423Z,3.53
2023-04-04T15:54:39.630Z,2.95
2023-04-04T15:57:06.839Z,2.17
2023-04-04T15:59:34.292Z,2.42
2023-04-04T16:02:01.622Z,1.95
2023-04-04T16:04:28.824Z,1.85
2023-04-04T16:06:56.065Z,2.50
2023-04-04T16:09:24.657Z,2.83
2023-04-04T16:11:52.182Z,1.75
2023-04-04T16:14:20.471Z,2.55
2023-04-04T16:16:48.405Z,2.70
2023-04-04T16:19:16.923Z,4.80
2023-04-04T16:21:44.142Z,3.58
2023-04-04T16:24:11.445Z,2.05
2023-04-04T16:26:46.884Z,2.00
2023-04-04T16:29:14.124Z,2.20
2023-04-04T16:31:41.358Z,2.10
2023-04-04T16:34:08.569Z,2.50
2023-04-04T16:36:35.883Z,2.72
2023-04-04T16:39:03.197Z,1.85
2023-04-04T16:41:30.515Z,3.08
2023-04-04T16:43:59.648Z,2.72
2023-04-04T16:46:27.316Z,2.60
2023-04-04T16:48:54.558Z,2.15
2023-04-04T16:51:21.765Z,2.47
2023-04-04T16:53:49.462Z,2.28
2023-04-04T16:56:16.860Z,4.43
2023-04-04T16:58:44.961Z,2.40
2023-04-04T17:01:16.455Z,2.22
2023-04-04T17:03:43.712Z,2.55
2023-04-04T17:06:11.280Z,2.30
2023-04-04T17:08:38.567Z,2.13
2023-04-04T17:11:05.831Z,2.80
2023-04-04T17:13:33.340Z,2.50
2023-04-04T17:16:00.799Z,2.90
2023-04-04T17:18:29.431Z,2.42
2023-04-04T17:20:56.617Z,2.08
2023-04-04T17:23:23.821Z,2.90
2023-04-04T17:25:51.021Z,2.42
2023-04-04T17:28:19.247Z,2.65
2023-04-04T17:30:46.845Z,2.80
2023-04-04T17:33:14.676Z,3.28
2023-04-04T17:35:44.105Z,2.13
2023-04-04T17:38:11.376Z,3.03
2023-04-04T17:40:40.457Z,2.83
2023-04-04T17:43:08.117Z,3.10
2023-04-04T17:45:35.653Z,3.70
2023-04-04T17:48:02.964Z,2.40
2023-04-04T17:50:30.368Z,3.28
2023-04-04T17:52:59.121Z,1.75
2023-04-04T17:55:26.898Z,1.73
2023-04-04T17:57:54.092Z,1.48
2023-04-04T18:00:21.923Z,2.10
2023-04-04T18:02:49.234Z,1.63
2023-04-04T18:05:16.837Z,1.90
2023-04-04T18:07:44.038Z,4.13
2023-04-04T18:10:12.687Z,2.97
2023-04-04T18:12:39.976Z,3.45
2023-04-04T18:15:07.610Z,1.95
2023-04-04T18:17:34.853Z,3.35
2023-04-04T18:20:04.136Z,2.28
2023-04-04T18:22:31.426Z,2.23
2023-04-04T18:24:58.891Z,2.10
2023-04-04T18:27:27.416Z,3.60
2023-04-04T18:29:54.592Z,2.28
2023-04-04T18:32:25.493Z,1.88
2023-04-04T18:34:52.791Z,1.70
2023-04-04T18:37:19.997Z,2.28
2023-04-04T18:39:47.217Z,2.10
2023-04-04T18:42:14.429Z,2.70
2023-04-04T18:44:42.943Z,2.20
2023-04-04T18:47:10.216Z,2.92
2023-04-04T18:49:38.137Z,2.30
2023-04-04T18:52:05.365Z,2.00
2023-04-04T18:54:32.566Z,1.50
2023-04-04T18:57:00.625Z,3.00
2023-04-04T18:59:27.958Z,2.15
2023-04-04T19:01:56.685Z,2.28
2023-04-04T19:04:23.929Z,2.08
2023-04-04T19:06:51.357Z,3.38
2023-04-04T19:09:18.551Z,1.80
2023-04-04T19:11:45.792Z,3.70
2023-04-04T19:14:13.002Z,2.03
2023-04-04T19:16:40.252Z,2.35
2023-04-04T19:19:08.777Z,2.05
2023-04-04T19:21:36.031Z,1.83
2023-04-04T19:24:03.519Z,2.45
2023-04-04T19:26:31.330Z,2.33
2023-04-04T19:28:58.929Z,2.20
2023-04-04T19:31:29.863Z,3.80
2023-04-04T19:33:57.334Z,1.83
2023-04-04T19:36:26.140Z,1.73
2023-04-04T19:38:54.529Z,2.38
2023-04-04T19:41:28.881Z,1.85
2023-04-04T19:43:56.118Z,2.05
2023-04-04T19:46:25.108Z,1.70
2023-04-04T19:48:52.590Z,1.80
2023-04-04T19:51:40.120Z,1.45
2023-04-04T19:54:08.373Z,1.95
2023-04-04T19:56:35.791Z,2.03
2023-04-04T19:59:04.393Z,1.92
2023-04-04T20:01:32.450Z,1.63
2023-04-04T20:04:01.401Z,1.88
2023-04-04T20:06:29.040Z,1.92
2023-04-04T20:08:57.831Z,1.58
2023-04-04T20:11:25.583Z,2.50
2023-04-04T20:13:52.761Z,1.45
2023-04-04T20:16:21.987Z,1.95
2023-04-04T20:18:49.253Z,2.07
2023-04-04T20:21:16.878Z,3.45
2023-04-04T20:23:45.446Z,2.42
2023-04-04T20:26:16.067Z,1.58
2023-04-04T20:28:47.046Z,1.60
2023-04-04T20:31:15.775Z,2.25
2023-04-04T20:33:43.021Z,1.90
2023-04-04T20:36:11.106Z,2.10
2023-04-04T20:38:38.771Z,3.05
2023-04-04T20:41:17.127Z,2.38
2023-04-04T20:43:45.504Z,2.88
2023-04-04T20:46:12.768Z,2.17
2023-04-04T20:48:40.358Z,1.45
2023-04-04T20:51:24.407Z,2.58
2023-04-04T20:53:51.879Z,2.25
2023-04-04T20:56:37.942Z,1.73
2023-04-04T20:59:07.136Z,1.65
2023-04-04T21:01:34.465Z,2.40
2023-04-04T21:04:01.905Z,2.60
2023-04-04T21:06:29.682Z,1.48
2023-04-04T21:08:56.887Z,2.90
2023-04-04T21:11:25.168Z,1.88
2023-04-04T21:13:52.416Z,3.17
2023-04-04T21:16:21.205Z,1.90
2023-04-04T21:18:48.521Z,1.50
2023-04-04T21:21:19.439Z,1.90
2023-04-04T21:23:50.451Z,3.42
2023-04-04T21:26:31.074Z,2.25
2023-04-04T21:28:58.594Z,2.65
2023-04-04T21:31:27.687Z,3.00
2023-04-04T21:33:55.461Z,1.85
2023-04-04T21:36:28.311Z,1.63
2023-04-04T21:38:55.890Z,2.10
2023-04-04T21:41:23.721Z,2.22
2023-04-04T21:43:51.119Z,1.83
2023-04-04T21:46:18.379Z,1.75
2023-04-04T21:48:46.926Z,2.08
2023-04-04T21:51:14.151Z,1.65
2023-04-04T21:53:41.359Z,1.95
2023-04-04T21:56:08.564Z,1.52
2023-04-04T21:58:36.094Z,2.03
2023-04-04T22:01:03.326Z,1.60
2023-04-04T22:03:30.608Z,1.98
2023-04-04T22:05:59.230Z,2.40
2023-04-04T22:08:26.433Z,2.08
2023-04-04T22:10:53.649Z,1.45
2023-04-04T22:13:22.335Z,1.90
2023-04-04T22:15:49.698Z,2.75
2023-04-04T22:18:16.952Z,3.22
2023-04-04T22:20:44.380Z,1.52
2023-04-04T22:23:13.240Z,1.52
2023-04-04T22:25:40.436Z,1.67
2023-04-04T22:28:08.543Z,1.30
2023-04-04T22:30:36.226Z,1.95
2023-04-04T22:33:05.119Z,2.38
2023-04-04T22:35:32.487Z,2.65
2023-04-04T22:38:00.964Z,1.65
2023-04-04T22:40:29.519Z,3.47
2023-04-04T22:42:56.790Z,3.63
2023-04-04T22:45:24.065Z,2.17
2023-04-04T22:47:51.426Z,2.95
2023-04-04T22:50:19.127Z,1.95
2023-04-04T22:52:46.691Z,2.33
2023-04-04T22:55:14.367Z,2.17
2023-04-04T22:57:42.874Z,1.85
2023-04-04T23:00:11.139Z,1.58
2023-04-04T23:02:38.504Z,2.80
2023-04-04T23:05:06.122Z,1.92
2023-04-04T23:07:33.441Z,2.50
2023-04-04T23:10:00.833Z,2.25
2023-04-04T23:12:28.028Z,2.65
2023-04-04T23:14:58.636Z,2.20
2023-04-04T23:17:25.926Z,1.88
2023-04-04T23:19:53.154Z,2.70
2023-04-04T23:22:20.394Z,2.72
2023-04-04T23:24:48.002Z,3.38
2023-04-04T23:27:15.521Z,1.75
2023-04-04T23:29:42.825Z,2.13
2023-04-04T23:32:11.418Z,2.60
2023-04-04T23:34:38.683Z,3.25
2023-04-04T23:37:05.933Z,1.98
2023-04-04T23:39:33.159Z,2.60
2023-04-04T23:42:00.369Z,2.35
2023-04-04T23:44:27.645Z,1.70
2023-04-04T23:46:54.942Z,2.80
2023-04-04T23:49:23.523Z,3.45
2023-04-04T23:51:50.864Z,2.40
2023-04-04T23:54:18.095Z,1.60
2023-04-04T23:56:45.325Z,2.60
2023-04-04T23:59:12.579Z,2.22
